createdAt,value
2022-08-01T00:00:09.858Z,56.13
2022-08-01T00:02:41.296Z,63.90
2022-08-01T00:05:09.801Z,61.95
2022-08-01T00:07:37.364Z,60.53
2022-08-01T00:10:09.385Z,55.35
2022-08-01T00:12:36.346Z,56.10
2022-08-01T00:15:04.390Z,58.22
2022-08-01T00:17:31.117Z,67.25
2022-08-01T00:19:57.837Z,54.63
2022-08-01T00:22:24.606Z,65.38
2022-08-01T00:24:51.326Z,63.33
2022-08-01T00:27:18.248Z,55.50
2022-08-01T00:30:11.411Z,65.07
2022-08-01T00:32:33.278Z,51.97
2022-08-01T00:34:59.972Z,56.40
2022-08-01T00:37:26.963Z,62.50
2022-08-01T00:39:54.323Z,51.28
2022-08-01T00:42:21.033Z,53.47
2022-08-01T00:44:47.846Z,53.35
2022-08-01T00:47:14.602Z,57.00
2022-08-01T00:49:41.500Z,56.30
2022-08-01T00:52:10.009Z,48.05
2022-08-01T00:54:38.184Z,51.65
2022-08-01T00:57:05.394Z,46.20
2022-08-01T00:59:39.988Z,50.97
2022-08-01T01:02:14.515Z,44.55
2022-08-01T01:04:42.566Z,42.00
2022-08-01T01:07:24.085Z,51.17
2022-08-01T01:09:50.789Z,53.30
2022-08-01T01:12:39.155Z,58.83
2022-08-01T01:15:27.519Z,54.22
2022-08-01T01:18:04.860Z,38.45
2022-08-01T01:20:36.883Z,35.95
2022-08-01T01:23:35.700Z,45.42
2022-08-01T01:26:13.005Z,52.63
2022-08-01T01:29:04.678Z,59.67
2022-08-01T01:31:41.152Z,61.03
2022-08-01T01:34:10.264Z,67.10
2022-08-01T01:36:38.325Z,66.68
2022-08-01T01:39:05.177Z,64.90
2022-08-01T01:41:32.703Z,57.20
2022-08-01T01:44:01.326Z,59.92
2022-08-01T01:46:30.959Z,57.63
2022-08-01T01:48:58.329Z,59.55
2022-08-01T01:51:28.168Z,57.88
2022-08-01T01:53:57.475Z,64.65
2022-08-01T01:56:25.373Z,54.65
2022-08-01T01:58:57.652Z,53.13
2022-08-01T02:01:38.689Z,48.85
2022-08-01T02:04:15.536Z,48.90
2022-08-01T02:06:43.123Z,53.75
2022-08-01T02:09:11.131Z,49.67
2022-08-01T02:12:08.254Z,49.25
2022-08-01T02:14:30.085Z,47.55
2022-08-01T02:16:59.073Z,39.55
2022-08-01T02:19:26.129Z,40.40
2022-08-01T02:21:55.840Z,42.22
2022-08-01T02:24:37.778Z,46.33
2022-08-01T02:27:11.059Z,43.75
2022-08-01T02:29:52.787Z,55.38
2022-08-01T02:32:36.726Z,44.95
2022-08-01T02:35:08.644Z,47.97
2022-08-01T02:37:41.866Z,47.88
2022-08-01T02:40:14.173Z,37.08
2022-08-01T02:42:48.694Z,36.20
2022-08-01T02:45:18.589Z,31.85
2022-08-01T02:47:48.217Z,43.67
2022-08-01T02:50:17.794Z,39.95
2022-08-01T02:52:48.890Z,50.85
2022-08-01T02:55:19.084Z,50.63
2022-08-01T02:57:51.809Z,45.47
2022-08-01T03:00:20.259Z,40.95
2022-08-01T03:02:55.062Z,44.08
2022-08-01T03:05:22.479Z,49.35
2022-08-01T03:07:51.187Z,48.05
2022-08-01T03:10:18.821Z,39.88
2022-08-01T03:12:48.236Z,38.95
2022-08-01T03:15:16.823Z,42.88
2022-08-01T03:17:49.282Z,40.35
2022-08-01T03:20:25.861Z,36.45
2022-08-01T03:22:53.968Z,39.53
2022-08-01T03:25:22.250Z,42.47
2022-08-01T03:27:55.200Z,36.05
2022-08-01T03:30:24.462Z,39.60
2022-08-01T03:32:51.496Z,45.88
2022-08-01T03:35:18.880Z,36.53
2022-08-01T03:38:14.743Z,34.92
2022-08-01T03:40:42.201Z,35.05
2022-08-01T03:43:18.126Z,32.85
2022-08-01T03:45:50.309Z,29.17
2022-08-01T03:48:20.036Z,27.15
2022-08-01T03:50:52.807Z,33.25
2022-08-01T03:53:25.690Z,38.58
2022-08-01T03:55:55.496Z,23.63
2022-08-01T03:58:22.927Z,27.25
2022-08-01T04:00:50.046Z,31.85
2022-08-01T04:03:20.649Z,24.60
2022-08-01T04:05:47.476Z,23.27
2022-08-01T04:08:14.203Z,28.00
2022-08-01T04:10:41.056Z,29.75
2022-08-01T04:13:07.743Z,22.50
2022-08-01T04:15:35.322Z,25.15
2022-08-01T04:18:02.076Z,28.50
2022-08-01T04:20:28.985Z,27.10
2022-08-01T04:22:56.065Z,23.95
2022-08-01T04:25:38.030Z,22.73
2022-08-01T04:28:12.376Z,23.58
2022-08-01T04:30:40.220Z,22.30
2022-08-01T04:33:08.956Z,26.80
2022-08-01T04:36:02.667Z,27.00
2022-08-01T04:38:28.273Z,29.38
2022-08-01T04:40:55.733Z,30.30
2022-08-01T04:43:23.881Z,34.63
2022-08-01T04:45:52.292Z,32.83
2022-08-01T04:48:22.968Z,34.60
2022-08-01T04:50:50.275Z,29.55
2022-08-01T04:53:23.047Z,33.97
2022-08-01T04:55:49.809Z,35.10
2022-08-01T04:58:19.245Z,35.80
2022-08-01T05:00:49.662Z,37.33
2022-08-01T05:03:17.038Z,34.67
2022-08-01T05:05:43.736Z,35.47
2022-08-01T05:08:10.951Z,36.25
2022-08-01T05:10:37.694Z,31.42
2022-08-01T05:13:04.509Z,35.20
2022-08-01T05:15:31.884Z,36.15
2022-08-01T05:17:58.837Z,29.75
2022-08-01T05:20:25.562Z,31.85
2022-08-01T05:22:52.518Z,31.45
2022-08-01T05:25:20.597Z,25.83
2022-08-01T05:28:06.230Z,35.33
2022-08-01T05:30:33.106Z,32.67
2022-08-01T05:32:59.855Z,30.05
2022-08-01T05:35:48.748Z,35.13
2022-08-01T05:38:15.199Z,33.92
2022-08-01T05:40:42.060Z,29.92
2022-08-01T05:43:08.781Z,35.67
2022-08-01T05:45:35.493Z,29.65
2022-08-01T05:48:02.215Z,17.48
2022-08-01T05:50:29.015Z,22.10
2022-08-01T05:52:55.890Z,18.23
2022-08-01T05:55:22.735Z,19.75
2022-08-01T05:57:49.486Z,17.33
2022-08-01T06:00:17.187Z,16.90
2022-08-01T06:02:44.356Z,15.70
2022-08-01T06:05:14.271Z,16.27
2022-08-01T06:07:41.231Z,14.82
2022-08-01T06:10:12.283Z,18.98
2022-08-01T06:12:39.748Z,16.33
2022-08-01T06:15:07.582Z,16.50
2022-08-01T06:17:34.803Z,20.90
2022-08-01T06:20:01.690Z,15.65
2022-08-01T06:22:28.681Z,16.98
2022-08-01T06:24:55.654Z,17.05
2022-08-01T06:27:22.935Z,20.48
2022-08-01T06:29:51.264Z,13.35
2022-08-01T06:32:27.050Z,9.18
2022-08-01T06:34:56.200Z,11.50
2022-08-01T06:37:24.037Z,7.90
2022-08-01T06:39:51.022Z,9.40
2022-08-01T06:42:18.201Z,9.73
2022-08-01T06:44:44.966Z,11.75
2022-08-01T06:47:12.402Z,9.77
2022-08-01T06:49:39.313Z,9.60
2022-08-01T06:52:06.304Z,8.75
2022-08-01T06:54:33.235Z,8.32
2022-08-01T06:57:00.148Z,13.13
2022-08-01T06:59:26.911Z,13.55
2022-08-01T07:01:53.685Z,11.43
2022-08-01T07:04:20.501Z,8.40
2022-08-01T07:06:47.331Z,6.65
2022-08-01T07:09:14.836Z,3.38
2022-08-01T07:11:42.137Z,6.35
2022-08-01T07:14:09.238Z,3.28
2022-08-01T07:16:35.994Z,3.15
2022-08-01T07:19:03.008Z,8.63
2022-08-01T07:21:40.007Z,4.60
2022-08-01T07:24:13.580Z,6.55
2022-08-01T07:26:53.472Z,3.50
2022-08-01T07:29:22.299Z,4.95
2022-08-01T07:31:48.989Z,12.60
2022-08-01T07:34:15.728Z,8.45
2022-08-01T07:36:42.451Z,6.15
2022-08-01T07:39:09.206Z,6.30
2022-08-01T07:42:05.644Z,6.05
2022-08-01T07:44:22.923Z,3.65
2022-08-01T07:46:49.683Z,10.02
2022-08-01T07:49:17.018Z,6.05
2022-08-01T07:51:43.906Z,11.02
2022-08-01T07:54:33.858Z,8.15
2022-08-01T07:57:02.276Z,8.82
2022-08-01T07:59:29.041Z,6.07
2022-08-01T08:01:55.816Z,7.10
2022-08-01T08:04:22.819Z,5.10
2022-08-01T08:06:50.064Z,4.43
2022-08-01T08:09:19.209Z,3.33
2022-08-01T08:11:47.971Z,5.63
2022-08-01T08:14:15.733Z,4.68
2022-08-01T08:16:43.404Z,5.93
2022-08-01T08:19:10.224Z,5.43
2022-08-01T08:21:38.613Z,7.10
2022-08-01T08:24:26.385Z,4.80
2022-08-01T08:27:01.656Z,5.40
2022-08-01T08:29:30.745Z,4.55
2022-08-01T08:31:58.347Z,5.30
2022-08-01T08:34:26.027Z,6.47
2022-08-01T08:36:52.991Z,6.57
2022-08-01T08:39:20.826Z,8.23
2022-08-01T08:41:49.161Z,8.82
2022-08-01T08:44:17.381Z,7.65
2022-08-01T08:46:49.923Z,9.65
2022-08-01T08:49:27.589Z,11.10
2022-08-01T08:52:04.767Z,11.13
2022-08-01T08:54:33.217Z,10.15
2022-08-01T08:57:01.484Z,11.35
2022-08-01T08:59:29.206Z,7.43
2022-08-01T09:01:57.125Z,9.90
2022-08-01T09:04:26.031Z,9.30
2022-08-01T09:06:54.490Z,8.98
2022-08-01T09:09:21.572Z,9.85
2022-08-01T09:11:56.815Z,10.88
2022-08-01T09:14:28.442Z,12.90
2022-08-01T09:17:07.497Z,13.07
2022-08-01T09:19:42.725Z,10.30
2022-08-01T09:22:12.679Z,8.65
2022-08-01T09:24:41.393Z,8.70
2022-08-01T09:27:24.613Z,9.40
2022-08-01T09:30:01.299Z,9.65
2022-08-01T09:32:38.513Z,8.98
2022-08-01T09:35:29.697Z,9.07
2022-08-01T09:38:17.013Z,10.82
2022-08-01T09:40:58.917Z,10.80
2022-08-01T09:43:31.498Z,11.40
2022-08-01T09:45:59.517Z,10.40
2022-08-01T09:48:29.577Z,14.27
2022-08-01T09:51:03.978Z,9.93
2022-08-01T09:53:51.771Z,8.88
2022-08-01T09:56:21.251Z,9.60
2022-08-01T09:59:01.694Z,12.07
2022-08-01T10:01:41.870Z,10.75
2022-08-01T10:04:11.081Z,11.98
2022-08-01T10:06:41.524Z,13.05
2022-08-01T10:09:08.771Z,13.10
2022-08-01T10:11:39.891Z,12.65
2022-08-01T10:14:07.461Z,12.73
2022-08-01T10:16:37.167Z,13.43
2022-08-01T10:19:14.886Z,12.68
2022-08-01T10:21:57.717Z,12.27
2022-08-01T10:24:28.186Z,12.48
2022-08-01T10:27:09.283Z,13.20
2022-08-01T10:29:46.190Z,12.00
2022-08-01T10:32:29.037Z,12.95
2022-08-01T10:34:57.395Z,13.48
2022-08-01T10:37:24.518Z,17.77
2022-08-01T10:40:27.262Z,14.52
2022-08-01T10:42:45.752Z,10.60
2022-08-01T10:45:16.323Z,10.07
2022-08-01T10:48:20.821Z,8.95
2022-08-01T10:50:50.581Z,9.32
2022-08-01T10:53:23.349Z,11.13
2022-08-01T10:55:55.178Z,17.00
2022-08-01T10:58:42.444Z,15.77
2022-08-01T11:01:16.911Z,12.95
2022-08-01T11:03:58.973Z,22.25
2022-08-01T11:06:33.774Z,19.40
2022-08-01T11:09:12.689Z,19.40
2022-08-01T11:12:08.873Z,20.73
2022-08-01T11:17:45.196Z,12.40
2022-08-01T11:20:20.144Z,11.00
2022-08-01T11:23:05.990Z,9.88
2022-08-01T11:26:06.606Z,9.23
2022-08-01T11:28:32.570Z,10.73
2022-08-01T11:31:11.158Z,4.05
2022-08-01T11:33:46.211Z,4.90
2022-08-01T11:36:14.577Z,4.60
2022-08-01T11:38:42.435Z,5.75
2022-08-01T11:41:37.456Z,5.13
2022-08-01T11:44:26.515Z,6.28
2022-08-01T11:47:09.117Z,6.05
2022-08-01T11:49:49.787Z,13.13
2022-08-01T11:52:31.554Z,10.50
2022-08-01T11:55:10.357Z,8.32
2022-08-01T11:57:39.002Z,7.55
2022-08-01T12:00:16.576Z,8.60
2022-08-01T12:02:45.839Z,9.27
2022-08-01T12:05:15.549Z,7.68
2022-08-01T12:07:44.081Z,9.30
2022-08-01T12:10:15.264Z,6.55
2022-08-01T12:12:49.430Z,6.82
2022-08-01T12:15:17.405Z,7.68
2022-08-01T12:17:58.517Z,7.00
2022-08-01T12:20:30.984Z,6.03
2022-08-01T12:23:01.850Z,5.60
2022-08-01T12:25:29.404Z,5.20
2022-08-01T12:28:00.380Z,3.50
2022-08-01T12:30:27.969Z,2.72
2022-08-01T12:32:56.015Z,2.20
2022-08-01T12:35:28.028Z,3.17
2022-08-01T12:37:55.751Z,2.70
2022-08-01T12:40:39.904Z,2.65
2022-08-01T12:43:15.926Z,2.85
2022-08-01T12:45:56.766Z,3.15
2022-08-01T12:48:25.472Z,3.58
2022-08-01T12:50:53.778Z,4.10
2022-08-01T12:53:21.647Z,3.38
2022-08-01T12:55:58.061Z,3.65
2022-08-01T12:58:32.830Z,4.35
2022-08-01T13:01:06.420Z,3.85
2022-08-01T13:03:33.356Z,4.05
2022-08-01T13:06:01.091Z,6.07
2022-08-01T13:08:33.030Z,5.60
2022-08-01T13:11:06.972Z,5.63
2022-08-01T13:13:48.543Z,8.50
2022-08-01T13:16:30.854Z,8.98
2022-08-01T13:19:05.617Z,7.90
2022-08-01T13:21:34.602Z,7.22
2022-08-01T13:24:27.374Z,8.77
2022-08-01T13:29:42.057Z,11.80
2022-08-01T13:32:27.538Z,12.10
2022-08-01T13:35:09.352Z,11.80
2022-08-01T13:37:39.018Z,10.77
2022-08-01T13:40:07.207Z,11.98
2022-08-01T13:42:34.190Z,11.95
2022-08-01T13:45:01.171Z,11.27
2022-08-01T13:47:31.678Z,11.20
2022-08-01T13:50:02.830Z,11.63
2022-08-01T13:52:29.933Z,12.10
2022-08-01T13:54:56.971Z,12.48
2022-08-01T13:57:23.861Z,13.15
2022-08-01T13:59:50.662Z,14.02
2022-08-01T14:02:17.439Z,14.35
2022-08-01T14:04:44.230Z,14.43
2022-08-01T14:07:14.731Z,15.05
2022-08-01T14:10:04.286Z,14.55
2022-08-01T14:12:29.590Z,14.13
2022-08-01T14:14:57.140Z,13.90
2022-08-01T14:17:23.984Z,15.75
2022-08-01T14:19:50.824Z,15.75
2022-08-01T14:22:17.585Z,17.20
2022-08-01T14:24:44.253Z,17.95
2022-08-01T14:27:11.327Z,18.90
2022-08-01T14:30:03.001Z,19.63
2022-08-01T14:32:28.712Z,19.08
2022-08-01T14:34:57.494Z,19.25
2022-08-01T14:37:28.607Z,18.85
2022-08-01T14:39:57.190Z,18.85
2022-08-01T14:42:26.101Z,18.80
2022-08-01T14:44:52.900Z,21.05
2022-08-01T14:47:21.562Z,19.65
2022-08-01T14:49:50.055Z,20.58
2022-08-01T14:52:17.237Z,21.92
2022-08-01T14:54:44.006Z,20.42
2022-08-01T14:57:10.721Z,21.30
2022-08-01T14:59:37.444Z,21.40
2022-08-01T15:02:04.621Z,21.30
2022-08-01T15:04:31.686Z,20.92
2022-08-01T15:06:58.624Z,22.38
2022-08-01T15:09:25.355Z,21.75
2022-08-01T15:11:52.110Z,21.73
2022-08-01T15:14:37.264Z,20.95
2022-08-01T15:17:04.264Z,21.02
2022-08-01T15:19:30.952Z,22.23
2022-08-01T15:21:57.688Z,20.85
2022-08-01T15:24:26.092Z,21.60
2022-08-01T15:26:52.810Z,21.58
2022-08-01T15:29:19.722Z,20.05
2022-08-01T15:31:46.660Z,21.20
2022-08-01T15:34:13.543Z,20.10
2022-08-01T15:36:42.071Z,19.90
2022-08-01T15:39:13.719Z,20.90
2022-08-01T15:41:40.417Z,20.48
2022-08-01T15:44:07.245Z,20.33
2022-08-01T15:46:33.966Z,20.52
2022-08-01T15:49:05.964Z,20.73
2022-08-01T15:51:33.826Z,19.65
2022-08-01T15:54:03.593Z,20.30
2022-08-01T15:56:30.882Z,20.95
2022-08-01T15:58:57.903Z,19.98
2022-08-01T16:01:26.634Z,19.48
2022-08-01T16:03:55.504Z,20.30
2022-08-01T16:06:22.622Z,19.73
2022-08-01T16:08:49.898Z,20.23
2022-08-01T16:11:17.217Z,20.48
2022-08-01T16:13:44.259Z,20.45
2022-08-01T16:16:12.475Z,20.67
2022-08-01T16:18:39.456Z,20.60
2022-08-01T16:21:07.674Z,20.50
2022-08-01T16:23:34.645Z,20.77
2022-08-01T16:26:01.854Z,20.05
2022-08-01T16:28:28.792Z,19.85
2022-08-01T16:31:04.879Z,20.20
2022-08-01T16:33:54.303Z,20.85
2022-08-01T16:36:23.331Z,20.73
2022-08-01T16:38:51.725Z,20.70
2022-08-01T16:41:20.301Z,20.77
2022-08-01T16:43:53.477Z,20.48
2022-08-01T16:46:25.759Z,19.17
2022-08-01T16:48:53.841Z,20.77
2022-08-01T16:51:20.603Z,21.20
2022-08-01T16:53:47.318Z,21.35
2022-08-01T16:56:13.990Z,21.17
2022-08-01T16:58:40.744Z,21.30
2022-08-01T17:01:59.313Z,21.08
2022-08-01T17:03:58.156Z,20.55
2022-08-01T17:06:28.279Z,22.05
2022-08-01T17:08:54.960Z,20.17
2022-08-01T17:11:21.682Z,21.95
2022-08-01T17:13:48.848Z,20.35
2022-08-01T17:16:15.627Z,20.55
2022-08-01T17:18:42.402Z,22.05
2022-08-01T17:21:09.122Z,21.10
2022-08-01T17:23:35.990Z,21.30
2022-08-01T17:26:03.036Z,20.80
2022-08-01T17:28:29.913Z,20.50
2022-08-01T17:30:56.797Z,21.08
2022-08-01T17:33:23.780Z,21.13
2022-08-01T17:36:10.655Z,20.50
2022-08-01T17:38:37.404Z,20.45
2022-08-01T17:41:04.190Z,21.00
2022-08-01T17:43:30.914Z,21.88
2022-08-01T17:45:57.733Z,21.52
2022-08-01T17:48:24.468Z,20.70
2022-08-01T17:50:51.421Z,22.92
2022-08-01T17:53:20.788Z,22.95
2022-08-01T17:55:55.605Z,22.30
2022-08-01T17:58:49.208Z,23.27
2022-08-01T18:01:16.153Z,25.05
2022-08-01T18:03:43.566Z,22.90
2022-08-01T18:06:13.531Z,23.08
2022-08-01T18:08:42.163Z,22.58
2022-08-01T18:11:09.698Z,21.95
2022-08-01T18:13:40.872Z,21.88
2022-08-01T18:16:09.808Z,22.85
2022-08-01T18:18:38.606Z,23.00
2022-08-01T18:21:06.475Z,22.73
2022-08-01T18:23:33.735Z,21.85
2022-08-01T18:26:02.626Z,22.75
2022-08-01T18:28:35.047Z,24.75
2022-08-01T18:31:03.641Z,24.30
2022-08-01T18:33:30.633Z,22.92
2022-08-01T18:36:03.832Z,22.48
2022-08-01T18:38:32.851Z,22.45
2022-08-01T18:41:00.096Z,21.45
2022-08-01T18:43:27.212Z,21.33
2022-08-01T18:45:54.888Z,22.20
2022-08-01T18:48:21.603Z,21.08
2022-08-01T18:50:48.563Z,19.65
2022-08-01T18:53:15.265Z,21.33
2022-08-01T18:55:41.944Z,22.13
2022-08-01T18:58:08.639Z,22.45
2022-08-01T19:00:35.409Z,22.27
2022-08-01T19:03:03.071Z,19.85
2022-08-01T19:05:30.530Z,20.67
2022-08-01T19:08:05.403Z,18.55
2022-08-01T19:10:38.705Z,20.95
2022-08-01T19:13:05.610Z,20.92
2022-08-01T19:15:32.421Z,20.65
2022-08-01T19:17:59.396Z,21.10
2022-08-01T19:20:26.605Z,21.05
2022-08-01T19:22:53.398Z,19.40
2022-08-01T19:25:20.217Z,19.45
2022-08-01T19:27:49.505Z,18.27
2022-08-01T19:30:17.974Z,15.02
2022-08-01T19:32:47.288Z,15.80
2022-08-01T19:35:16.683Z,15.13
2022-08-01T19:37:48.883Z,15.32
2022-08-01T19:40:26.346Z,14.32
2022-08-01T19:42:55.695Z,14.77
2022-08-01T19:45:22.769Z,15.50
2022-08-01T19:47:57.431Z,15.10
2022-08-01T19:52:57.486Z,15.90
2022-08-01T19:55:26.826Z,15.75
2022-08-01T20:00:42.747Z,17.08
2022-08-01T20:03:09.988Z,16.88
2022-08-01T20:05:38.577Z,17.48
2022-08-01T20:08:07.086Z,17.88
2022-08-01T20:10:37.365Z,18.42
2022-08-01T20:13:05.467Z,21.50
2022-08-01T20:15:32.303Z,18.75
2022-08-01T20:17:59.864Z,19.35
2022-08-01T20:20:27.828Z,18.38
2022-08-01T20:22:57.340Z,18.45
2022-08-01T20:25:33.560Z,22.73
2022-08-01T20:28:09.568Z,17.90
2022-08-01T20:30:36.819Z,18.40
2022-08-01T20:33:05.988Z,19.00
2022-08-01T20:35:51.740Z,19.20
2022-08-01T20:38:25.347Z,18.75
2022-08-01T20:40:59.024Z,19.95
2022-08-01T20:43:27.340Z,21.70
2022-08-01T20:45:54.860Z,18.58
2022-08-01T20:48:22.269Z,18.60
2022-08-01T20:51:08.186Z,20.63
2022-08-01T20:53:40.461Z,19.85
2022-08-01T20:56:17.193Z,19.50
2022-08-01T20:59:01.912Z,18.65
2022-08-01T21:01:32.693Z,21.42
2022-08-01T21:04:14.026Z,18.20
2022-08-01T21:06:54.077Z,19.05
2022-08-01T21:09:23.788Z,20.70
2022-08-01T21:12:03.414Z,19.63
2022-08-01T21:14:48.004Z,18.13
2022-08-01T21:17:24.604Z,16.50
2022-08-01T21:19:55.511Z,16.15
2022-08-01T21:23:01.634Z,18.10
2022-08-01T21:25:34.015Z,18.00
2022-08-01T21:28:02.313Z,18.88
2022-08-01T21:30:34.759Z,21.40
2022-08-01T21:33:04.833Z,22.10
2022-08-01T21:35:32.811Z,25.63
2022-08-01T21:38:01.750Z,25.58
2022-08-01T21:40:34.491Z,24.40
2022-08-01T21:43:02.756Z,33.40
2022-08-01T21:45:30.479Z,22.23
2022-08-01T21:47:59.614Z,24.63
2022-08-01T21:50:26.450Z,21.30
2022-08-01T21:53:11.862Z,25.48
2022-08-01T21:58:44.220Z,23.65
2022-08-01T22:01:21.507Z,28.83
2022-08-01T22:03:52.312Z,32.92
2022-08-01T22:06:22.952Z,32.33
2022-08-01T22:08:52.270Z,30.60
2022-08-01T22:11:25.214Z,27.00
2022-08-01T22:13:59.907Z,27.25
2022-08-01T22:16:30.444Z,26.88
2022-08-01T22:18:57.539Z,30.20
2022-08-01T22:21:27.092Z,21.80
2022-08-01T22:23:54.352Z,29.90
2022-08-01T22:26:27.114Z,22.60
2022-08-01T22:28:55.880Z,19.40
2022-08-01T22:31:22.645Z,19.90
2022-08-01T22:33:49.937Z,20.25
2022-08-01T22:36:17.345Z,21.55
2022-08-01T22:38:44.039Z,22.70
2022-08-01T22:41:17.232Z,26.20
2022-08-01T22:43:52.936Z,32.78
2022-08-01T22:46:31.734Z,27.92
2022-08-01T22:49:09.176Z,25.02
2022-08-01T22:51:55.510Z,26.58
2022-08-01T22:54:29.926Z,32.40
2022-08-01T22:57:01.388Z,32.73
2022-08-01T22:59:56.840Z,28.20
2022-08-01T23:02:24.282Z,27.77
2022-08-01T23:04:55.090Z,27.27
2022-08-01T23:07:31.550Z,24.67
2022-08-01T23:09:58.753Z,21.75
2022-08-01T23:12:27.511Z,21.45
2022-08-01T23:14:58.021Z,21.90
2022-08-01T23:17:28.956Z,28.15
2022-08-01T23:19:58.948Z,26.60
2022-08-01T23:22:30.963Z,27.65
2022-08-01T23:25:05.232Z,32.83
2022-08-01T23:27:55.980Z,23.92
2022-08-01T23:30:30.539Z,29.80
2022-08-01T23:32:58.166Z,28.98
2022-08-01T23:35:25.957Z,23.13
2022-08-01T23:37:52.926Z,25.48
2022-08-01T23:40:20.170Z,21.27
2022-08-01T23:42:47.156Z,22.13
2022-08-01T23:45:13.972Z,29.15
2022-08-01T23:47:40.802Z,25.90
2022-08-01T23:50:08.623Z,27.25
2022-08-01T23:52:36.831Z,25.08
2022-08-01T23:55:15.608Z,25.58
2022-08-01T23:57:42.714Z,28.65
